Airfield :
LOGIN :

Register | Disclaimer

   EN    FR    IT 

 










Legend :    VFR   Marginal VFR   IFR   Intensive IFR   Very Intensive IFR
Visi :
Ceiling :
>= 8 km
>= 3000ft
5 to 8 km
1000 to 3000 ft
1500m to 5 km
500 to 1000 ft
800 to 1500m
200 to 500 ft
< 800m
< 200 ft
Symbols :   Thunderstorms  Fog  Heavy snow  Heavy precipitations  Wind > 20 kt
SIGMETs :     Misc.  Thunderstorms  Icing  Turbulence  Mountain Waves  Volcanic Ashes






- Airport Elevation : 659 ft
- IATA code : LYN


LFLY - Lyon Bron

CURRENT METAR :
  • 182130Z AUTO VRB03KT 0450 0400 R34/0650N FZFG VV/// M00/M01 Q1028 NOSIG

EXPIRED METARs :
  • 182100Z AUTO VRB02KT 0450 R34/0500N FZFG VV/// M00/M01 Q1028 NOSIG
  • 182030Z AUTO 10003KT 080V140 0500 R34/0650D FZFG VV/// M00/M01 Q1028 NOSIG
  • 182000Z AUTO 06004KT 0450 R34/0550N FG VV/// 00/M00 Q1028 TEMPO 0500 FZFG
  • 181930Z AUTO 08004KT 060V120 0450 0400 R34/0600D FG VV/// 01/M00 Q1028 TEMPO 0500 FZFG
  • 181900Z AUTO VRB02KT 0400 R34/0550D FG VV/// 01/00 Q1028 TEMPO 0600 FG

TAF AMD TAF LFLY
Valid from the 18 at 19:00 until the 19 at 18:00 UTC


181904Z 1819/1918 VRB03KT 3000 BR BKN004
TEMPO 1819/1821 0500 FG VV///
PROB40 1820/1908 0500 FZFG VV///
FM190900 15005KT CAVOK
BECMG 1913/1916 18015G27KT
ATIS : +33 4 72 15 87 96



MET'MAP, your aeronautical weather chart ! - Copyright ORBIFLY December 2007 - Disclaimer

ORBIFLY MET'MAP TEAM :

Programming & Development : Alexandra Zaïnal
Concept & original design : Baudouin d'Aumeries
Assistance for programming : Marc-Olivier Méhu
Technical & hardware support : Manuel Goepfert

Contact : metmap@orbifly.com




SOURCES & CREDITS :

   NOAA